Time;durP1;ratioP1;P1;durP2;ratioP2;P2;SDS_P1;SDS_P2;PMS_P1;PMS_P2;Temp;Humidity;BMP_temperature;BMP_pressure;BME280_temperature;BME280_humidity;BME280_pressure;Samples;Min_cycle;Max_cycle;Signal;HPM_P1;HPM_P2
2021/01/04 00:02:47;;;;;;;14.43;10.33;;;2.40;99.90;;;;;;5031824;28;20524;-63
2021/01/04 00:05:31;;;;;;;15.20;11.23;;;2.30;99.90;;;;;;5033342;28;20172;-67
2021/01/04 00:08:15;;;;;;;15.13;10.47;;;2.30;99.90;;;;;;5032920;28;20175;-64
2021/01/04 00:11:08;;;;;;;14.20;10.17;;;2.30;99.90;;;;;;5032849;28;20199;-64
2021/01/04 00:13:57;;;;;;;14.77;10.50;;;2.20;99.90;;;;;;5032785;28;20702;-64
2021/01/04 00:16:46;;;;;;;14.27;10.50;;;2.20;99.90;;;;;;5032715;28;20234;-66
2021/01/04 00:19:19;;;;;;;14.70;9.83;;;2.20;99.90;;;;;;5032755;28;20191;-64
2021/01/04 00:21:50;;;;;;;14.50;10.70;;;2.10;99.90;;;;;;5032147;28;20217;-65
2021/01/04 00:24:31;;;;;;;14.07;10.53;;;2.10;99.90;;;;;;5032781;28;20179;-67
2021/01/04 00:27:12;;;;;;;15.70;9.80;;;2.10;99.90;;;;;;5031996;28;20646;-64
2021/01/04 00:29:38;;;;;;;12.20;8.77;;;2.00;99.90;;;;;;5032599;28;20194;-65
2021/01/04 00:32:22;;;;;;;14.07;9.70;;;2.00;99.90;;;;;;5031737;28;20184;-63
2021/01/04 00:34:52;;;;;;;13.93;9.27;;;2.00;99.90;;;;;;5032310;28;20229;-63
2021/01/04 00:38:11;;;;;;;13.50;9.70;;;2.10;99.90;;;;;;5031965;28;20179;-63
2021/01/04 00:41:10;;;;;;;12.67;8.97;;;2.00;99.90;;;;;;5009680;28;20185;-62
2021/01/04 00:43:53;;;;;;;13.57;9.13;;;2.00;99.90;;;;;;5032295;28;20560;-62
2021/01/04 00:46:29;;;;;;;11.00;8.60;;;2.00;99.90;;;;;;5031930;28;20175;-65
2021/01/04 00:49:08;;;;;;;11.20;9.07;;;2.00;99.90;;;;;;5031815;28;20214;-63
2021/01/04 00:51:42;;;;;;;12.27;9.37;;;2.00;99.90;;;;;;5031901;28;20189;-62
2021/01/04 00:54:25;;;;;;;17.33;10.03;;;2.00;99.90;;;;;;5031950;28;20597;-64
2021/01/04 00:57:15;;;;;;;12.20;8.60;;;2.00;99.90;;;;;;5031680;28;20172;-63
2021/01/04 01:00:08;;;;;;;14.50;9.07;;;2.00;99.90;;;;;;5031585;28;20550;-63
2021/01/04 01:02:55;;;;;;;12.93;9.43;;;2.00;99.90;;;;;;5032119;28;20171;-64
2021/01/04 01:05:44;;;;;;;12.13;8.77;;;2.00;99.90;;;;;;5031625;28;20574;-64
2021/01/04 01:08:35;;;;;;;13.83;9.80;;;2.00;99.90;;;;;;5031694;28;20657;-64
2021/01/04 01:11:06;;;;;;;11.80;9.00;;;2.00;99.90;;;;;;5030605;28;20179;-63
2021/01/04 01:13:49;;;;;;;12.83;8.87;;;2.00;99.90;;;;;;5031708;28;20562;-64
2021/01/04 01:16:30;;;;;;;13.00;9.13;;;2.00;99.90;;;;;;5030167;28;20175;-63
2021/01/04 01:19:14;;;;;;;12.80;9.27;;;2.00;99.90;;;;;;5031186;28;20219;-62
2021/01/04 01:21:44;;;;;;;12.40;9.60;;;2.10;99.90;;;;;;5031418;28;20175;-63
2021/01/04 01:24:09;;;;;;;11.53;8.67;;;2.10;99.90;;;;;;5031420;28;20183;-63
2021/01/04 01:26:44;;;;;;;12.27;8.83;;;2.00;99.90;;;;;;5031820;28;20190;-62
2021/01/04 01:29:15;;;;;;;13.07;9.70;;;2.10;99.90;;;;;;5030876;28;20243;-63
2021/01/04 01:32:25;;;;;;;12.00;9.17;;;2.10;99.90;;;;;;5031325;28;20186;-64
2021/01/04 01:35:14;;;;;;;11.80;9.07;;;2.10;99.90;;;;;;4970407;28;20200;-63
2021/01/04 01:37:57;;;;;;;12.13;9.57;;;2.10;99.90;;;;;;4987397;28;20191;-63
2021/01/04 01:40:44;;;;;;;12.33;8.73;;;2.10;99.90;;;;;;5022010;28;20196;-64
2021/01/04 01:43:28;;;;;;;14.07;8.50;;;2.10;99.90;;;;;;5011683;28;20168;-64
2021/01/04 01:46:15;;;;;;;11.33;8.03;;;2.10;99.90;;;;;;5013493;28;20168;-61
2021/01/04 01:48:50;;;;;;;11.50;9.20;;;2.10;99.90;;;;;;5030996;28;20214;-65
2021/01/04 01:51:52;;;;;;;12.17;8.43;;;2.10;99.90;;;;;;5011333;28;20176;-64
2021/01/04 01:54:29;;;;;;;11.20;8.40;;;2.10;99.90;;;;;;5027440;28;20611;-64
2021/01/04 01:57:27;;;;;;;10.87;8.70;;;2.10;99.90;;;;;;5031164;28;20248;-65
2021/01/04 02:00:26;;;;;;;10.83;8.10;;;2.20;99.90;;;;;;5011394;28;20188;-65
2021/01/04 02:03:13;;;;;;;11.60;8.53;;;2.20;99.90;;;;;;5014744;28;20178;-64
2021/01/04 02:06:07;;;;;;;11.50;8.37;;;2.20;99.90;;;;;;5031250;28;20175;-64
2021/01/04 02:08:39;;;;;;;12.40;9.00;;;2.20;99.90;;;;;;5030773;28;20621;-64
2021/01/04 02:11:21;;;;;;;12.03;8.80;;;2.20;99.90;;;;;;5029692;28;20638;-64
2021/01/04 02:14:09;;;;;;;11.23;8.57;;;2.20;99.90;;;;;;5031066;28;20195;-64
2021/01/04 02:16:54;;;;;;;11.73;8.87;;;2.20;99.90;;;;;;5031645;28;20241;-64
2021/01/04 02:19:54;;;;;;;14.03;9.97;;;2.20;99.90;;;;;;5030822;28;20223;-64
2021/01/04 02:22:39;;;;;;;10.87;8.73;;;2.20;99.90;;;;;;5032591;28;20171;-64
2021/01/04 02:25:05;;;;;;;12.43;8.83;;;2.10;99.90;;;;;;5034667;28;20548;-64
2021/01/04 02:27:36;;;;;;;11.13;8.87;;;2.20;99.90;;;;;;5034478;28;20202;-64
2021/01/04 02:30:04;;;;;;;10.57;8.10;;;2.20;99.90;;;;;;5034369;28;20187;-64
2021/01/04 02:32:29;;;;;;;13.43;9.40;;;2.20;99.90;;;;;;5034275;28;20167;-63
2021/01/04 02:34:57;;;;;;;12.97;9.83;;;2.20;99.90;;;;;;5034161;28;20180;-64
2021/01/04 02:37:25;;;;;;;13.53;9.17;;;2.20;99.90;;;;;;5034245;28;20210;-63
2021/01/04 02:39:57;;;;;;;12.80;9.83;;;2.20;99.90;;;;;;5034058;28;20282;-66
2021/01/04 02:42:35;;;;;;;12.77;9.63;;;2.10;99.90;;;;;;5034011;28;20167;-64
2021/01/04 02:45:30;;;;;;;13.37;9.20;;;2.10;99.90;;;;;;5034476;28;20171;-64
2021/01/04 02:47:58;;;;;;;14.17;10.10;;;2.20;99.90;;;;;;5016682;28;20194;-63
2021/01/04 02:50:48;;;;;;;10.90;9.20;;;2.10;99.90;;;;;;5034129;28;20168;-63
2021/01/04 02:53:49;;;;;;;12.73;9.53;;;2.10;99.90;;;;;;5014421;28;20258;-63
2021/01/04 02:56:46;;;;;;;12.97;9.87;;;2.10;99.90;;;;;;5019851;28;20645;-64
2021/01/04 02:59:36;;;;;;;11.23;9.30;;;2.10;99.90;;;;;;5014291;28;20204;-63
2021/01/04 03:02:31;;;;;;;12.70;10.07;;;2.10;99.90;;;;;;5032307;28;20219;-63
2021/01/04 03:04:58;;;;;;;11.77;9.50;;;2.10;99.90;;;;;;5033966;28;20172;-62
2021/01/04 03:07:32;;;;;;;13.30;9.63;;;2.10;99.90;;;;;;5033855;28;20191;-63
2021/01/04 03:09:59;;;;;;;11.03;9.07;;;2.10;99.90;;;;;;5033602;28;20203;-63
2021/01/04 03:12:32;;;;;;;11.07;8.40;;;2.10;99.90;;;;;;5033688;28;20186;-63
2021/01/04 03:15:07;;;;;;;11.37;9.47;;;2.10;99.90;;;;;;5033489;28;20641;-63
2021/01/04 03:17:57;;;;;;;13.20;9.50;;;2.10;99.90;;;;;;5033881;28;20171;-63
2021/01/04 03:20:25;;;;;;;11.50;8.20;;;2.10;99.90;;;;;;5033282;28;20179;-63
2021/01/04 03:22:52;;;;;;;10.87;8.67;;;2.10;99.90;;;;;;5033266;28;20210;-64
2021/01/04 03:25:20;;;;;;;11.63;9.03;;;2.20;99.90;;;;;;5033344;28;20183;-62
2021/01/04 03:27:46;;;;;;;12.43;8.87;;;2.10;99.90;;;;;;5033550;28;20182;-63
2021/01/04 03:30:13;;;;;;;12.67;9.33;;;2.10;99.90;;;;;;5033104;28;20565;-64
2021/01/04 03:32:40;;;;;;;10.60;8.67;;;2.20;99.90;;;;;;5033266;28;20203;-63
2021/01/04 03:35:07;;;;;;;12.30;8.87;;;2.20;99.90;;;;;;5032916;28;20210;-64
2021/01/04 03:37:32;;;;;;;11.37;8.70;;;2.20;99.90;;;;;;5033530;28;20207;-63
2021/01/04 03:39:58;;;;;;;11.00;8.43;;;2.20;99.90;;;;;;5032897;28;20685;-64
2021/01/04 03:42:23;;;;;;;11.73;9.07;;;2.20;99.90;;;;;;5033220;28;20183;-63
2021/01/04 03:44:49;;;;;;;10.47;8.13;;;2.20;99.90;;;;;;5032868;28;20542;-63
2021/01/04 03:47:15;;;;;;;8.20;7.40;;;2.20;99.90;;;;;;5033212;28;20656;-63
2021/01/04 03:49:41;;;;;;;9.73;7.73;;;2.20;99.90;;;;;;5032912;28;20211;-64
2021/01/04 03:52:07;;;;;;;8.40;7.33;;;2.20;99.90;;;;;;5032852;28;20175;-64
2021/01/04 03:54:32;;;;;;;10.13;8.07;;;2.20;99.90;;;;;;5032743;28;20207;-63
2021/01/04 03:56:58;;;;;;;8.73;7.77;;;2.20;99.90;;;;;;5033046;28;20179;-63
2021/01/04 03:59:24;;;;;;;10.73;8.20;;;2.20;99.90;;;;;;5032606;28;20621;-63
2021/01/04 04:01:54;;;;;;;10.93;7.87;;;2.20;99.90;;;;;;5032801;28;20206;-64
2021/01/04 04:04:20;;;;;;;9.37;7.90;;;2.30;99.90;;;;;;5032774;28;20195;-62
2021/01/04 04:06:46;;;;;;;11.37;7.87;;;2.30;99.90;;;;;;5032821;28;20187;-65
2021/01/04 04:09:13;;;;;;;7.57;6.57;;;2.30;99.90;;;;;;5032343;28;20204;-63
2021/01/04 04:11:39;;;;;;;8.30;7.40;;;2.30;99.90;;;;;;5032745;28;20181;-63
2021/01/04 04:14:05;;;;;;;8.77;7.17;;;2.30;99.90;;;;;;5032371;28;20286;-63
2021/01/04 04:16:31;;;;;;;8.77;7.50;;;2.30;99.90;;;;;;5032734;28;20175;-64
2021/01/04 04:18:57;;;;;;;10.87;7.20;;;2.20;99.90;;;;;;5032490;28;20286;-63
2021/01/04 04:21:23;;;;;;;9.27;7.40;;;2.20;99.90;;;;;;5032096;28;20267;-64
2021/01/04 04:23:49;;;;;;;8.33;7.17;;;2.20;99.90;;;;;;5032714;28;20572;-62
2021/01/04 04:26:19;;;;;;;9.40;7.43;;;2.20;99.90;;;;;;5032228;28;20179;-63
2021/01/04 04:28:45;;;;;;;9.50;7.17;;;2.20;99.90;;;;;;5032198;28;20530;-62
2021/01/04 04:31:12;;;;;;;9.97;7.40;;;2.20;99.90;;;;;;5031787;28;20191;-63
2021/01/04 04:33:39;;;;;;;8.63;7.43;;;2.20;99.90;;;;;;5030053;28;20207;-64
2021/01/04 04:36:06;;;;;;;10.90;7.37;;;2.20;99.90;;;;;;5032306;28;20168;-63
2021/01/04 04:38:31;;;;;;;7.57;6.53;;;2.20;99.90;;;;;;5031986;28;20225;-64
2021/01/04 04:40:57;;;;;;;9.97;7.57;;;2.20;99.90;;;;;;5031525;28;20182;-62
2021/01/04 04:43:41;;;;;;;9.43;7.87;;;2.20;99.90;;;;;;5032193;28;20258;-63
2021/01/04 04:46:15;;;;;;;9.50;7.33;;;2.20;99.90;;;;;;5031315;28;20266;-63
2021/01/04 04:49:01;;;;;;;8.73;7.83;;;2.20;99.90;;;;;;5032567;28;20210;-63
2021/01/04 04:51:32;;;;;;;10.90;7.30;;;2.20;99.90;;;;;;5031492;28;20274;-63
2021/01/04 04:54:00;;;;;;;10.00;8.07;;;2.20;99.90;;;;;;5031820;28;20206;-64
2021/01/04 04:56:41;;;;;;;8.30;7.03;;;2.20;99.90;;;;;;5030985;28;20182;-63
2021/01/04 04:59:34;;;;;;;10.10;8.07;;;2.20;99.90;;;;;;5031522;28;20274;-63
2021/01/04 05:02:12;;;;;;;9.00;8.10;;;2.10;99.90;;;;;;5031532;28;20180;-61
2021/01/04 05:05:08;;;;;;;7.30;6.60;;;2.10;99.90;;;;;;5031749;28;20236;-63
2021/01/04 05:08:00;;;;;;;9.60;7.40;;;2.10;99.90;;;;;;5031882;28;20175;-62
2021/01/04 05:10:34;;;;;;;9.47;6.67;;;2.10;99.90;;;;;;5031128;28;20194;-63
2021/01/04 05:13:23;;;;;;;10.00;7.03;;;2.20;99.90;;;;;;5031759;28;20210;-63
2021/01/04 05:15:58;;;;;;;10.30;8.23;;;2.20;99.90;;;;;;5031518;28;20179;-64
2021/01/04 05:18:51;;;;;;;9.00;7.50;;;2.20;99.90;;;;;;5029910;28;20201;-63
2021/01/04 05:21:35;;;;;;;10.77;8.00;;;2.20;99.90;;;;;;5031281;28;20589;-64
2021/01/04 05:24:38;;;;;;;7.63;6.50;;;2.20;99.90;;;;;;5031351;28;20540;-64
2021/01/04 05:27:25;;;;;;;7.93;6.87;;;2.20;99.90;;;;;;5031542;28;20210;-63
2021/01/04 05:29:50;;;;;;;8.67;6.57;;;2.20;99.90;;;;;;5031393;28;20699;-62
2021/01/04 05:32:53;;;;;;;9.13;7.07;;;2.20;99.90;;;;;;5031235;28;20183;-63
2021/01/04 05:35:18;;;;;;;9.33;7.37;;;2.20;99.90;;;;;;5031281;28;20707;-62
2021/01/04 05:38:05;;;;;;;9.37;7.50;;;2.20;99.90;;;;;;5031369;28;20251;-63
2021/01/04 05:40:59;;;;;;;9.63;7.27;;;2.20;99.90;;;;;;5030845;28;20186;-63
2021/01/04 05:43:43;;;;;;;7.60;6.80;;;2.30;99.90;;;;;;5031053;28;20645;-63
2021/01/04 05:46:27;;;;;;;7.83;6.43;;;2.30;99.90;;;;;;5031382;28;20206;-63
2021/01/04 05:49:23;;;;;;;7.97;7.00;;;2.30;99.90;;;;;;5031076;28;20219;-63
2021/01/04 05:51:50;;;;;;;7.67;6.63;;;2.30;99.90;;;;;;5031159;28;20606;-62
2021/01/04 05:54:31;;;;;;;7.87;7.07;;;2.30;99.90;;;;;;5029568;28;20217;-63
2021/01/04 05:57:10;;;;;;;8.77;7.30;;;2.30;99.90;;;;;;5034084;28;20229;-63
2021/01/04 05:59:46;;;;;;;8.17;6.87;;;2.30;99.90;;;;;;5034946;28;20213;-63
2021/01/04 06:02:22;;;;;;;7.20;6.50;;;2.30;99.90;;;;;;5034815;28;20179;-63
2021/01/04 06:04:48;;;;;;;8.17;6.60;;;2.30;99.90;;;;;;5033885;28;20529;-63
2021/01/04 06:07:13;;;;;;;7.40;5.80;;;2.30;99.90;;;;;;5035003;28;20271;-63
2021/01/04 06:09:39;;;;;;;9.03;7.87;;;2.30;99.90;;;;;;5034806;28;20203;-63
2021/01/04 06:12:21;;;;;;;7.30;6.27;;;2.30;99.90;;;;;;5034769;28;20202;-63
2021/01/04 06:14:58;;;;;;;9.63;7.37;;;2.30;99.90;;;;;;5034740;28;20210;-64
2021/01/04 06:17:29;;;;;;;8.63;7.03;;;2.30;99.90;;;;;;5034680;28;20176;-64
2021/01/04 06:19:59;;;;;;;7.97;6.90;;;2.40;99.90;;;;;;5034747;28;20281;-64
2021/01/04 06:22:29;;;;;;;8.30;6.67;;;2.30;99.90;;;;;;5034528;28;20183;-64
2021/01/04 06:25:00;;;;;;;9.67;7.10;;;2.40;99.90;;;;;;5034741;28;20544;-63
2021/01/04 06:27:41;;;;;;;9.77;7.10;;;2.40;99.90;;;;;;5034477;28;20237;-64
2021/01/04 06:30:30;;;;;;;11.33;8.30;;;2.40;99.90;;;;;;5034275;28;20668;-63
2021/01/04 06:33:19;;;;;;;10.27;7.10;;;2.40;99.90;;;;;;5034521;28;20211;-63
2021/01/04 06:35:45;;;;;;;8.83;6.87;;;2.40;99.90;;;;;;5015020;28;20176;-64
2021/01/04 06:38:29;;;;;;;9.13;6.83;;;2.30;99.90;;;;;;5014480;28;20200;-64
2021/01/04 06:40:55;;;;;;;10.13;8.10;;;2.30;99.90;;;;;;5014422;28;20260;-64
2021/01/04 06:43:24;;;;;;;8.83;7.53;;;2.40;99.90;;;;;;5014464;28;20633;-63
2021/01/04 06:46:14;;;;;;;9.43;7.63;;;2.40;99.90;;;;;;5034418;28;20258;-63
2021/01/04 06:48:39;;;;;;;8.97;7.30;;;2.30;99.90;;;;;;5033812;28;20218;-63
2021/01/04 06:51:25;;;;;;;12.67;9.47;;;2.30;99.90;;;;;;5032222;28;20673;-64
2021/01/04 06:53:57;;;;;;;11.00;7.60;;;2.40;99.90;;;;;;5033952;28;20685;-64
2021/01/04 06:56:31;;;;;;;13.03;9.60;;;2.40;99.90;;;;;;5034202;28;20180;-63
2021/01/04 06:59:00;;;;;;;11.83;8.67;;;2.40;99.90;;;;;;5033960;28;20209;-65
2021/01/04 07:01:54;;;;;;;14.47;9.77;;;2.40;99.90;;;;;;5033997;28;20175;-64
2021/01/04 07:04:40;;;;;;;14.83;9.20;;;2.40;99.90;;;;;;5033724;28;20266;-65
2021/01/04 07:07:39;;;;;;;11.40;8.50;;;2.40;99.90;;;;;;5033017;28;20318;-64
2021/01/04 07:10:35;;;;;;;11.70;8.83;;;2.40;99.90;;;;;;5033180;28;20204;-65
2021/01/04 07:13:00;;;;;;;9.90;8.47;;;2.50;99.90;;;;;;5033937;28;20243;-63
2021/01/04 07:15:31;;;;;;;12.17;8.63;;;2.40;99.90;;;;;;5033374;28;20209;-65
2021/01/04 07:18:24;;;;;;;10.63;7.90;;;2.50;99.90;;;;;;5033638;28;20227;-64
2021/01/04 07:21:11;;;;;;;14.30;9.37;;;2.50;99.90;;;;;;5032978;28;20575;-65
2021/01/04 07:23:57;;;;;;;8.73;7.80;;;2.60;99.90;;;;;;5033512;28;20213;-66
2021/01/04 07:26:46;;;;;;;10.30;8.33;;;2.60;99.90;;;;;;5033521;28;20719;-64
2021/01/04 07:29:30;;;;;;;11.37;8.60;;;2.70;99.90;;;;;;5032932;28;20207;-63
2021/01/04 07:32:29;;;;;;;10.07;7.77;;;2.60;99.90;;;;;;5033339;28;20186;-64
2021/01/04 07:35:18;;;;;;;11.23;8.03;;;2.60;99.90;;;;;;5013649;28;20219;-64
2021/01/04 07:37:47;;;;;;;10.03;8.20;;;2.60;99.90;;;;;;4986204;28;20670;-64
2021/01/04 07:40:21;;;;;;;13.27;9.40;;;2.60;99.90;;;;;;5032983;28;20255;-64
2021/01/04 07:43:11;;;;;;;11.37;8.93;;;2.60;99.90;;;;;;5033042;28;20175;-64
2021/01/04 07:45:55;;;;;;;12.53;9.53;;;2.60;99.90;;;;;;5033241;28;20593;-64
2021/01/04 07:48:48;;;;;;;12.90;9.40;;;2.60;99.90;;;;;;5032763;28;20568;-64
2021/01/04 07:51:34;;;;;;;13.57;10.13;;;2.60;99.90;;;;;;5032459;28;20649;-65
2021/01/04 07:54:12;;;;;;;34.27;16.30;;;2.60;99.90;;;;;;5032351;28;20309;-64
2021/01/04 07:57:23;;;;;;;13.80;10.17;;;2.60;99.90;;;;;;5032976;28;20201;-64
2021/01/04 08:00:14;;;;;;;14.27;10.20;;;2.60;99.90;;;;;;5032722;28;20222;-63
2021/01/04 08:03:04;;;;;;;14.17;10.87;;;2.60;99.90;;;;;;5032622;28;20237;-63
2021/01/04 08:05:53;;;;;;;13.60;10.33;;;2.60;99.90;;;;;;5032820;28;20179;-63
2021/01/04 08:08:53;;;;;;;15.93;11.47;;;2.60;99.90;;;;;;5031211;28;20310;-64
2021/01/04 08:11:56;;;;;;;15.60;11.80;;;2.70;99.90;;;;;;5032144;28;20175;-65
2021/01/04 08:14:49;;;;;;;15.30;11.73;;;2.70;99.90;;;;;;5032198;28;20206;-63
2021/01/04 08:17:44;;;;;;;16.17;11.67;;;2.70;99.90;;;;;;5032077;28;20237;-65
2021/01/04 08:20:10;;;;;;;20.60;13.73;;;2.70;99.90;;;;;;5031007;28;20176;-64
2021/01/04 08:23:17;;;;;;;18.30;13.33;;;2.70;99.90;;;;;;5032563;28;20262;-64
2021/01/04 08:26:09;;;;;;;15.87;11.50;;;2.60;99.90;;;;;;5024704;28;20214;-63
2021/01/04 08:28:56;;;;;;;14.57;10.70;;;2.60;99.90;;;;;;5012365;28;20219;-63
2021/01/04 08:31:43;;;;;;;14.93;11.47;;;2.60;99.90;;;;;;5020790;28;20221;-64
2021/01/04 08:34:19;;;;;;;14.17;10.27;;;2.70;99.90;;;;;;5032077;28;20210;-63
2021/01/04 08:36:44;;;;;;;15.97;11.03;;;2.60;99.90;;;;;;5012642;28;20607;-63
2021/01/04 08:39:22;;;;;;;13.20;10.43;;;2.70;99.90;;;;;;5012149;28;20286;-63
2021/01/04 08:42:07;;;;;;;16.37;10.77;;;2.70;99.90;;;;;;5011653;28;20555;-64
2021/01/04 08:44:34;;;;;;;14.20;10.10;;;2.70;99.90;;;;;;5014052;28;20630;-64
2021/01/04 08:47:16;;;;;;;15.07;10.23;;;2.70;99.90;;;;;;5032176;28;20194;-65
2021/01/04 08:49:46;;;;;;;16.23;10.93;;;2.80;99.90;;;;;;5031424;28;20215;-64
2021/01/04 08:52:21;;;;;;;13.87;11.20;;;2.80;99.90;;;;;;5031874;28;20653;-64
2021/01/04 08:54:58;;;;;;;14.20;10.27;;;2.80;99.90;;;;;;5031789;28;20207;-64
2021/01/04 08:57:37;;;;;;;14.03;9.87;;;2.80;99.90;;;;;;5030408;28;20187;-64
2021/01/04 09:00:25;;;;;;;12.70;9.97;;;2.80;99.90;;;;;;5029507;28;20302;-63
2021/01/04 09:02:51;;;;;;;14.10;10.20;;;2.90;99.90;;;;;;5012924;28;20176;-65
2021/01/04 09:05:34;;;;;;;12.87;9.90;;;2.80;99.90;;;;;;5031534;28;20172;-63
2021/01/04 09:08:01;;;;;;;11.97;9.37;;;2.90;99.90;;;;;;5031483;28;20176;-63
2021/01/04 09:10:38;;;;;;;12.73;9.83;;;2.90;99.90;;;;;;5031367;28;20176;-65
2021/01/04 09:13:14;;;;;;;11.30;9.10;;;3.00;99.90;;;;;;5031131;28;20221;-63
2021/01/04 09:15:40;;;;;;;16.17;11.07;;;3.00;99.90;;;;;;5031925;28;20679;-63
2021/01/04 09:18:30;;;;;;;20.03;13.33;;;3.00;99.90;;;;;;5031215;28;20191;-64
2021/01/04 09:21:05;;;;;;;18.03;11.77;;;3.10;99.90;;;;;;5031415;28;20174;-64
2021/01/04 09:23:36;;;;;;;14.63;10.40;;;3.10;99.90;;;;;;5031329;28;20193;-64
2021/01/04 09:26:01;;;;;;;13.63;9.47;;;3.10;99.90;;;;;;5031648;28;20175;-64
2021/01/04 09:28:36;;;;;;;13.23;9.97;;;3.20;99.90;;;;;;5031069;28;20203;-63
2021/01/04 09:31:02;;;;;;;13.30;10.30;;;3.20;99.90;;;;;;5030916;28;20642;-63
2021/01/04 09:33:28;;;;;;;11.27;9.10;;;3.20;99.90;;;;;;5031149;28;20207;-64
2021/01/04 09:36:05;;;;;;;12.87;9.53;;;3.20;99.90;;;;;;5031501;28;20182;-65
2021/01/04 09:38:31;;;;;;;14.23;9.93;;;3.20;99.90;;;;;;5030931;28;20187;-63
2021/01/04 09:41:03;;;;;;;15.03;9.63;;;3.30;99.90;;;;;;5030995;28;20175;-64
2021/01/04 09:43:31;;;;;;;11.77;9.60;;;3.30;99.90;;;;;;5031019;28;20171;-62
2021/01/04 09:46:53;;;;;;;11.73;9.03;;;3.30;99.90;;;;;;5031470;28;20176;-63
2021/01/04 09:49:24;;;;;;;10.37;8.90;;;3.30;99.90;;;;;;5008151;28;20220;-63
2021/01/04 09:51:57;;;;;;;16.20;9.00;;;3.30;99.90;;;;;;5007799;28;20187;-64
2021/01/04 09:54:29;;;;;;;14.70;10.03;;;3.30;99.90;;;;;;5020787;28;20511;-63
2021/01/04 09:57:02;;;;;;;13.10;9.30;;;3.40;99.90;;;;;;5031490;28;20561;-63
2021/01/04 09:59:28;;;;;;;13.33;10.07;;;3.40;99.90;;;;;;5030723;28;20304;-64
2021/01/04 10:02:00;;;;;;;14.13;10.33;;;3.40;99.90;;;;;;5030938;28;20614;-65
2021/01/04 10:04:32;;;;;;;15.60;10.90;;;3.50;99.90;;;;;;5030961;28;20215;-64
2021/01/04 10:07:03;;;;;;;17.30;11.47;;;3.50;99.90;;;;;;5031428;28;20634;-64
2021/01/04 10:09:35;;;;;;;12.00;8.87;;;3.50;99.90;;;;;;5030911;28;20273;-64
2021/01/04 10:12:04;;;;;;;12.27;9.90;;;3.50;99.90;;;;;;5030889;28;20175;-64
2021/01/04 10:14:31;;;;;;;13.37;10.23;;;3.60;99.90;;;;;;5029586;28;20399;-64
2021/01/04 10:16:59;;;;;;;14.73;10.60;;;3.50;99.90;;;;;;5031038;28;20183;-63
2021/01/04 10:19:39;;;;;;;11.07;9.20;;;3.50;99.90;;;;;;5030309;28;20553;-64
2021/01/04 10:22:17;;;;;;;13.73;10.40;;;3.60;99.90;;;;;;5030724;28;20645;-64
2021/01/04 10:24:46;;;;;;;14.63;10.10;;;3.60;99.90;;;;;;5031034;28;20202;-64
2021/01/04 10:27:16;;;;;;;12.90;10.20;;;3.60;99.90;;;;;;5030688;28;20587;-64
2021/01/04 10:29:46;;;;;;;12.83;10.07;;;3.60;99.90;;;;;;5030994;28;20302;-64
2021/01/04 10:32:22;;;;;;;13.60;10.13;;;3.40;99.90;;;;;;5030483;28;20544;-64
2021/01/04 10:34:49;;;;;;;15.33;11.33;;;3.50;99.90;;;;;;5030941;28;20247;-63
2021/01/04 10:37:41;;;;;;;14.80;10.83;;;3.50;99.90;;;;;;5030540;28;20172;-64
2021/01/04 10:40:13;;;;;;;15.43;11.27;;;3.50;99.90;;;;;;5030518;28;20633;-64
2021/01/04 10:42:42;;;;;;;13.60;10.27;;;3.40;99.90;;;;;;5031392;28;20625;-63
2021/01/04 10:45:10;;;;;;;13.13;10.97;;;3.40;99.90;;;;;;5034227;28;20222;-65
2021/01/04 10:47:46;;;;;;;14.67;11.13;;;3.40;99.90;;;;;;5034126;28;20175;-64
2021/01/04 10:50:36;;;;;;;14.30;10.53;;;3.50;99.90;;;;;;5034478;28;20225;-65
2021/01/04 10:53:09;;;;;;;13.50;9.63;;;3.50;99.90;;;;;;5034003;28;20200;-64
2021/01/04 10:55:48;;;;;;;12.80;10.20;;;3.50;99.90;;;;;;5034223;28;20657;-63
2021/01/04 10:58:21;;;;;;;15.67;9.67;;;3.50;99.90;;;;;;5033741;28;20559;-64
2021/01/04 11:01:09;;;;;;;14.33;10.57;;;3.50;99.90;;;;;;5033607;28;20650;-64
2021/01/04 11:03:35;;;;;;;11.37;8.90;;;3.50;99.90;;;;;;5034010;28;20184;-63
2021/01/04 11:06:01;;;;;;;10.77;8.60;;;3.60;99.90;;;;;;5032490;28;20175;-64
2021/01/04 11:08:32;;;;;;;15.27;11.43;;;3.70;99.90;;;;;;5033911;28;20199;-64
2021/01/04 11:11:11;;;;;;;12.17;9.60;;;3.80;99.90;;;;;;5033419;28;20172;-64
2021/01/04 11:13:37;;;;;;;12.87;9.77;;;3.80;99.90;;;;;;5033593;28;20207;-64
2021/01/04 11:16:15;;;;;;;11.47;9.27;;;3.70;99.90;;;;;;5033489;28;20184;-63
2021/01/04 11:18:53;;;;;;;12.93;10.00;;;3.70;99.90;;;;;;5033750;28;20695;-64
2021/01/04 11:21:31;;;;;;;11.33;8.93;;;3.70;99.90;;;;;;5033018;28;20164;-64
2021/01/04 11:23:57;;;;;;;10.67;8.80;;;3.70;99.90;;;;;;5034163;28;20207;-65
2021/01/04 11:26:22;;;;;;;11.93;9.37;;;3.70;99.90;;;;;;5033070;28;20591;-65
2021/01/04 11:28:48;;;;;;;13.07;10.07;;;3.70;99.90;;;;;;5033212;28;20203;-64
2021/01/04 11:31:14;;;;;;;13.80;10.30;;;3.70;99.90;;;;;;5033021;28;20203;-65
2021/01/04 11:33:39;;;;;;;17.57;11.90;;;3.70;99.90;;;;;;5033247;28;20215;-64
2021/01/04 11:36:05;;;;;;;13.90;9.53;;;3.70;99.90;;;;;;5031070;28;20187;-64
2021/01/04 11:38:31;;;;;;;12.07;9.93;;;3.70;99.90;;;;;;5013799;28;20196;-64
2021/01/04 11:40:57;;;;;;;13.53;9.63;;;3.70;99.90;;;;;;5031936;28;20201;-65
2021/01/04 11:43:22;;;;;;;11.17;9.57;;;3.70;99.90;;;;;;5033116;28;20183;-64
2021/01/04 11:45:48;;;;;;;11.30;9.53;;;3.60;99.90;;;;;;5033132;28;20180;-66
2021/01/04 11:48:14;;;;;;;13.03;9.37;;;3.50;99.90;;;;;;5032879;28;20210;-64
2021/01/04 11:50:39;;;;;;;12.10;9.60;;;3.50;99.90;;;;;;5032899;28;20274;-63
2021/01/04 11:53:05;;;;;;;11.20;8.63;;;3.40;99.90;;;;;;5033013;28;20253;-65
2021/01/04 11:55:32;;;;;;;11.37;8.30;;;3.40;99.90;;;;;;5032664;28;20183;-64
2021/01/04 11:57:58;;;;;;;10.03;8.23;;;3.40;99.90;;;;;;5031870;28;20262;-64
2021/01/04 12:00:24;;;;;;;13.77;8.90;;;3.30;99.90;;;;;;5031921;28;20230;-64
2021/01/04 12:02:49;;;;;;;10.17;8.47;;;3.30;99.90;;;;;;5033157;28;20171;-65
2021/01/04 12:05:16;;;;;;;8.47;7.53;;;3.30;99.90;;;;;;5032568;28;20699;-64
2021/01/04 12:07:43;;;;;;;10.20;8.60;;;3.30;99.90;;;;;;5032702;28;20241;-64
2021/01/04 12:10:09;;;;;;;8.00;7.20;;;3.30;99.90;;;;;;5032207;28;20282;-65
2021/01/04 12:12:35;;;;;;;9.47;7.87;;;3.20;99.90;;;;;;5032522;28;20183;-64
2021/01/04 12:15:02;;;;;;;12.23;9.17;;;3.20;99.90;;;;;;5032664;28;20222;-63
2021/01/04 12:17:27;;;;;;;10.60;8.07;;;3.30;99.90;;;;;;5031844;28;20594;-63
2021/01/04 12:19:53;;;;;;;12.33;8.33;;;3.30;99.90;;;;;;5032248;28;20195;-64
2021/01/04 12:22:18;;;;;;;9.87;8.40;;;3.30;99.90;;;;;;5032054;28;20229;-64
2021/01/04 12:24:45;;;;;;;8.90;7.80;;;3.30;99.90;;;;;;5032531;28;20664;-64
2021/01/04 12:27:12;;;;;;;9.90;8.57;;;3.30;99.90;;;;;;5032117;28;20705;-64
2021/01/04 12:29:48;;;;;;;10.27;9.00;;;3.30;99.90;;;;;;5031977;28;20683;-64
2021/01/04 12:32:16;;;;;;;10.20;8.67;;;3.30;99.90;;;;;;5031884;28;20182;-64
2021/01/04 12:34:42;;;;;;;8.83;7.80;;;3.20;99.90;;;;;;5032384;28;20741;-63
2021/01/04 12:37:08;;;;;;;11.40;8.03;;;3.20;99.90;;;;;;5032026;28;20167;-64
2021/01/04 12:39:35;;;;;;;10.63;8.67;;;3.20;99.90;;;;;;5032070;28;20240;-64
2021/01/04 12:42:00;;;;;;;10.73;7.53;;;3.20;99.90;;;;;;5031609;28;20265;-65
2021/01/04 12:44:26;;;;;;;10.00;7.97;;;3.20;99.90;;;;;;5032253;28;20214;-64
2021/01/04 12:46:52;;;;;;;12.30;9.40;;;3.10;99.90;;;;;;5032060;28;20667;-64
2021/01/04 12:49:21;;;;;;;8.07;7.27;;;3.10;99.90;;;;;;5031163;28;20572;-64
2021/01/04 12:52:05;;;;;;;9.80;8.50;;;3.00;99.90;;;;;;5032006;28;20172;-65
2021/01/04 12:54:31;;;;;;;9.87;7.83;;;3.00;99.90;;;;;;5012459;28;20215;-64
2021/01/04 12:57:00;;;;;;;12.67;7.97;;;3.10;99.90;;;;;;5012351;28;20653;-65
2021/01/04 12:59:26;;;;;;;9.80;7.47;;;3.10;99.90;;;;;;5030933;28;20215;-65
2021/01/04 13:01:55;;;;;;;9.47;7.70;;;3.10;99.90;;;;;;5031620;28;20172;-64
2021/01/04 13:04:23;;;;;;;11.20;8.43;;;3.10;99.90;;;;;;5031395;28;20245;-65
2021/01/04 13:06:50;;;;;;;12.30;8.77;;;3.20;99.90;;;;;;5031485;28;20167;-64
2021/01/04 13:09:16;;;;;;;9.07;7.43;;;3.20;99.90;;;;;;5031023;28;20207;-65
2021/01/04 13:11:52;;;;;;;9.97;7.23;;;3.20;99.90;;;;;;5030262;28;20233;-65
2021/01/04 13:14:19;;;;;;;12.13;9.07;;;3.20;99.90;;;;;;5031070;28;20202;-65
2021/01/04 13:16:46;;;;;;;15.07;9.00;;;3.20;99.90;;;;;;5031691;28;20164;-64
2021/01/04 13:19:12;;;;;;;11.43;8.00;;;3.20;99.90;;;;;;5031043;28;20282;-65
2021/01/04 13:21:39;;;;;;;11.20;7.50;;;3.20;99.90;;;;;;5019707;28;20172;-65
2021/01/04 13:24:06;;;;;;;10.10;8.40;;;3.20;99.90;;;;;;5018603;28;20261;-64
2021/01/04 13:26:46;;;;;;;10.80;8.63;;;3.20;99.90;;;;;;5031518;28;20206;-65
2021/01/04 13:29:13;;;;;;;9.33;7.87;;;3.20;99.90;;;;;;5031101;28;20291;-65
2021/01/04 13:31:39;;;;;;;10.87;8.30;;;3.20;99.90;;;;;;5031157;28;20167;-64
2021/01/04 13:34:06;;;;;;;10.50;8.10;;;3.20;99.90;;;;;;5031086;28;20207;-64
2021/01/04 13:36:32;;;;;;;13.10;9.17;;;3.30;99.90;;;;;;5031491;28;20167;-65